sensor_id;sensor_type;location;lat;lon;timestamp;P1;durP1;ratioP1;P2;durP2;ratioP2
50128;SDS011;36026;45.478;9.224;2023-07-20T00:00:46;15.23;;;5.57;;
50128;SDS011;36026;45.478;9.224;2023-07-20T00:03:47;12.05;;;5.50;;
50128;SDS011;36026;45.478;9.224;2023-07-20T00:06:54;14.70;;;4.95;;
50128;SDS011;36026;45.478;9.224;2023-07-20T00:09:57;10.00;;;4.63;;
50128;SDS011;36026;45.478;9.224;2023-07-20T00:12:59;12.75;;;4.47;;
50128;SDS011;36026;45.478;9.224;2023-07-20T00:16:00;9.85;;;4.25;;
50128;SDS011;36026;45.478;9.224;2023-07-20T00:19:01;9.15;;;4.18;;
50128;SDS011;36026;45.478;9.224;2023-07-20T00:22:03;10.82;;;4.35;;
50128;SDS011;36026;45.478;9.224;2023-07-20T00:25:07;10.25;;;4.00;;
50128;SDS011;36026;45.478;9.224;2023-07-20T00:28:08;9.43;;;4.05;;
50128;SDS011;36026;45.478;9.224;2023-07-20T00:31:10;10.13;;;4.28;;
50128;SDS011;36026;45.478;9.224;2023-07-20T00:34:11;12.82;;;5.47;;
50128;SDS011;36026;45.478;9.224;2023-07-20T00:37:13;7.03;;;4.43;;
50128;SDS011;36026;45.478;9.224;2023-07-20T00:40:15;9.93;;;4.70;;
50128;SDS011;36026;45.478;9.224;2023-07-20T00:43:18;8.27;;;4.32;;
50128;SDS011;36026;45.478;9.224;2023-07-20T00:46:20;8.45;;;4.85;;
50128;SDS011;36026;45.478;9.224;2023-07-20T00:49:23;8.07;;;4.38;;
50128;SDS011;36026;45.478;9.224;2023-07-20T00:52:25;9.13;;;5.00;;
50128;SDS011;36026;45.478;9.224;2023-07-20T00:55:28;8.07;;;4.40;;
50128;SDS011;36026;45.478;9.224;2023-07-20T00:58:29;6.38;;;4.30;;
50128;SDS011;36026;45.478;9.224;2023-07-20T01:01:31;8.52;;;4.20;;
50128;SDS011;36026;45.478;9.224;2023-07-20T01:04:32;10.70;;;4.43;;
50128;SDS011;36026;45.478;9.224;2023-07-20T01:07:34;10.32;;;4.78;;
50128;SDS011;36026;45.478;9.224;2023-07-20T01:10:38;9.88;;;4.10;;
50128;SDS011;36026;45.478;9.224;2023-07-20T01:13:41;10.43;;;4.53;;
50128;SDS011;36026;45.478;9.224;2023-07-20T01:16:42;8.43;;;4.55;;
50128;SDS011;36026;45.478;9.224;2023-07-20T01:19:44;10.00;;;5.13;;
50128;SDS011;36026;45.478;9.224;2023-07-20T01:23:06;10.13;;;4.47;;
50128;SDS011;36026;45.478;9.224;2023-07-20T01:26:26;7.57;;;4.05;;
50128;SDS011;36026;45.478;9.224;2023-07-20T01:29:34;7.03;;;4.30;;
50128;SDS011;36026;45.478;9.224;2023-07-20T01:32:39;6.70;;;4.30;;
50128;SDS011;36026;45.478;9.224;2023-07-20T01:35:42;13.52;;;4.78;;
50128;SDS011;36026;45.478;9.224;2023-07-20T01:38:44;9.57;;;4.50;;
50128;SDS011;36026;45.478;9.224;2023-07-20T01:41:46;11.60;;;5.15;;
50128;SDS011;36026;45.478;9.224;2023-07-20T01:44:47;9.70;;;4.50;;
50128;SDS011;36026;45.478;9.224;2023-07-20T01:47:50;10.82;;;4.88;;
50128;SDS011;36026;45.478;9.224;2023-07-20T01:50:52;9.57;;;4.80;;
50128;SDS011;36026;45.478;9.224;2023-07-20T01:53:53;12.68;;;5.70;;
50128;SDS011;36026;45.478;9.224;2023-07-20T01:56:55;9.13;;;5.85;;
50128;SDS011;36026;45.478;9.224;2023-07-20T01:59:56;10.98;;;5.35;;
50128;SDS011;36026;45.478;9.224;2023-07-20T02:02:59;11.80;;;5.47;;
50128;SDS011;36026;45.478;9.224;2023-07-20T02:06:00;14.15;;;5.93;;
50128;SDS011;36026;45.478;9.224;2023-07-20T02:09:02;12.05;;;5.70;;
50128;SDS011;36026;45.478;9.224;2023-07-20T02:12:03;8.70;;;5.57;;
50128;SDS011;36026;45.478;9.224;2023-07-20T02:15:05;10.63;;;5.68;;
50128;SDS011;36026;45.478;9.224;2023-07-20T02:18:08;11.50;;;5.75;;
50128;SDS011;36026;45.478;9.224;2023-07-20T02:21:10;12.38;;;6.20;;
50128;SDS011;36026;45.478;9.224;2023-07-20T02:24:11;9.50;;;5.90;;
50128;SDS011;36026;45.478;9.224;2023-07-20T02:27:13;9.05;;;6.00;;
50128;SDS011;36026;45.478;9.224;2023-07-20T02:30:14;10.38;;;6.18;;
50128;SDS011;36026;45.478;9.224;2023-07-20T02:33:17;9.90;;;6.25;;
50128;SDS011;36026;45.478;9.224;2023-07-20T02:36:20;13.45;;;6.97;;
50128;SDS011;36026;45.478;9.224;2023-07-20T02:39:21;12.65;;;6.95;;
50128;SDS011;36026;45.478;9.224;2023-07-20T02:42:23;10.73;;;6.85;;
50128;SDS011;36026;45.478;9.224;2023-07-20T02:45:26;12.35;;;8.07;;
50128;SDS011;36026;45.478;9.224;2023-07-20T02:48:28;11.32;;;6.82;;
50128;SDS011;36026;45.478;9.224;2023-07-20T02:51:30;9.95;;;7.10;;
50128;SDS011;36026;45.478;9.224;2023-07-20T02:54:31;12.60;;;6.80;;
50128;SDS011;36026;45.478;9.224;2023-07-20T02:57:33;11.48;;;7.63;;
50128;SDS011;36026;45.478;9.224;2023-07-20T03:00:34;12.30;;;7.03;;
50128;SDS011;36026;45.478;9.224;2023-07-20T03:03:37;12.18;;;7.10;;
50128;SDS011;36026;45.478;9.224;2023-07-20T03:06:39;10.75;;;7.00;;
50128;SDS011;36026;45.478;9.224;2023-07-20T03:09:40;12.23;;;7.38;;
50128;SDS011;36026;45.478;9.224;2023-07-20T03:12:43;15.73;;;8.20;;
50128;SDS011;36026;45.478;9.224;2023-07-20T03:15:45;13.55;;;7.45;;
50128;SDS011;36026;45.478;9.224;2023-07-20T03:18:47;10.85;;;7.40;;
50128;SDS011;36026;45.478;9.224;2023-07-20T03:21:49;13.27;;;7.30;;
50128;SDS011;36026;45.478;9.224;2023-07-20T03:24:50;11.30;;;7.07;;
50128;SDS011;36026;45.478;9.224;2023-07-20T03:27:52;11.68;;;6.57;;
50128;SDS011;36026;45.478;9.224;2023-07-20T03:30:53;11.52;;;6.53;;
50128;SDS011;36026;45.478;9.224;2023-07-20T03:33:57;9.75;;;7.03;;
50128;SDS011;36026;45.478;9.224;2023-07-20T03:36:58;12.05;;;7.18;;
50128;SDS011;36026;45.478;9.224;2023-07-20T03:40:00;12.65;;;7.50;;
50128;SDS011;36026;45.478;9.224;2023-07-20T03:43:02;11.15;;;6.95;;
50128;SDS011;36026;45.478;9.224;2023-07-20T03:46:04;13.57;;;7.18;;
50128;SDS011;36026;45.478;9.224;2023-07-20T03:49:08;10.55;;;7.72;;
50128;SDS011;36026;45.478;9.224;2023-07-20T03:55:11;15.20;;;7.57;;
50128;SDS011;36026;45.478;9.224;2023-07-20T03:58:13;12.43;;;7.68;;
50128;SDS011;36026;45.478;9.224;2023-07-20T04:01:14;10.30;;;6.70;;
50128;SDS011;36026;45.478;9.224;2023-07-20T04:04:18;11.27;;;7.20;;
50128;SDS011;36026;45.478;9.224;2023-07-20T04:07:19;14.57;;;7.47;;
50128;SDS011;36026;45.478;9.224;2023-07-20T04:10:21;10.75;;;7.03;;
50128;SDS011;36026;45.478;9.224;2023-07-20T04:13:22;11.80;;;7.80;;
50128;SDS011;36026;45.478;9.224;2023-07-20T04:16:23;11.68;;;7.70;;
50128;SDS011;36026;45.478;9.224;2023-07-20T04:19:27;13.40;;;7.60;;
50128;SDS011;36026;45.478;9.224;2023-07-20T04:22:29;11.73;;;7.45;;
50128;SDS011;36026;45.478;9.224;2023-07-20T04:25:30;11.70;;;7.93;;
50128;SDS011;36026;45.478;9.224;2023-07-20T04:31:35;12.20;;;7.57;;
50128;SDS011;36026;45.478;9.224;2023-07-20T04:34:37;12.48;;;7.95;;
50128;SDS011;36026;45.478;9.224;2023-07-20T04:40:45;12.43;;;7.90;;
50128;SDS011;36026;45.478;9.224;2023-07-20T04:43:47;14.80;;;7.72;;
50128;SDS011;36026;45.478;9.224;2023-07-20T04:46:49;11.73;;;7.70;;
50128;SDS011;36026;45.478;9.224;2023-07-20T04:49:51;11.48;;;7.50;;
50128;SDS011;36026;45.478;9.224;2023-07-20T04:52:53;14.45;;;7.15;;
50128;SDS011;36026;45.478;9.224;2023-07-20T04:55:54;11.02;;;6.72;;
50128;SDS011;36026;45.478;9.224;2023-07-20T04:58:56;9.75;;;6.95;;
50128;SDS011;36026;45.478;9.224;2023-07-20T05:01:57;11.10;;;7.28;;
50128;SDS011;36026;45.478;9.224;2023-07-20T05:05:00;11.25;;;6.63;;
50128;SDS011;36026;45.478;9.224;2023-07-20T05:08:02;9.55;;;5.90;;
50128;SDS011;36026;45.478;9.224;2023-07-20T05:11:04;9.50;;;6.22;;
50128;SDS011;36026;45.478;9.224;2023-07-20T05:14:07;10.90;;;6.83;;
50128;SDS011;36026;45.478;9.224;2023-07-20T05:17:08;10.32;;;6.45;;
50128;SDS011;36026;45.478;9.224;2023-07-20T05:20:11;11.02;;;7.03;;
50128;SDS011;36026;45.478;9.224;2023-07-20T05:23:13;7.70;;;5.30;;
50128;SDS011;36026;45.478;9.224;2023-07-20T05:26:14;10.05;;;5.70;;
50128;SDS011;36026;45.478;9.224;2023-07-20T05:29:16;8.88;;;5.30;;
50128;SDS011;36026;45.478;9.224;2023-07-20T05:32:17;10.63;;;6.30;;
50128;SDS011;36026;45.478;9.224;2023-07-20T05:35:20;8.10;;;5.30;;
50128;SDS011;36026;45.478;9.224;2023-07-20T05:38:22;11.40;;;6.45;;
50128;SDS011;36026;45.478;9.224;2023-07-20T05:41:24;9.40;;;5.63;;
50128;SDS011;36026;45.478;9.224;2023-07-20T05:44:25;10.43;;;5.93;;
50128;SDS011;36026;45.478;9.224;2023-07-20T05:47:27;9.93;;;6.90;;
50128;SDS011;36026;45.478;9.224;2023-07-20T05:50:30;12.15;;;6.70;;
50128;SDS011;36026;45.478;9.224;2023-07-20T05:53:32;12.75;;;6.28;;
50128;SDS011;36026;45.478;9.224;2023-07-20T05:56:33;14.02;;;6.38;;
50128;SDS011;36026;45.478;9.224;2023-07-20T05:59:34;11.98;;;5.80;;
50128;SDS011;36026;45.478;9.224;2023-07-20T06:02:36;11.73;;;7.57;;
50128;SDS011;36026;45.478;9.224;2023-07-20T06:05:39;12.98;;;6.45;;
50128;SDS011;36026;45.478;9.224;2023-07-20T06:08:40;11.20;;;6.28;;
50128;SDS011;36026;45.478;9.224;2023-07-20T06:11:42;13.40;;;8.23;;
50128;SDS011;36026;45.478;9.224;2023-07-20T06:14:43;13.00;;;7.35;;
50128;SDS011;36026;45.478;9.224;2023-07-20T06:17:44;12.77;;;7.85;;
50128;SDS011;36026;45.478;9.224;2023-07-20T06:20:49;14.05;;;7.05;;
50128;SDS011;36026;45.478;9.224;2023-07-20T06:23:51;10.70;;;7.07;;
50128;SDS011;36026;45.478;9.224;2023-07-20T06:26:53;11.52;;;6.93;;
50128;SDS011;36026;45.478;9.224;2023-07-20T06:29:54;10.80;;;6.97;;
50128;SDS011;36026;45.478;9.224;2023-07-20T06:32:56;16.23;;;7.32;;
50128;SDS011;36026;45.478;9.224;2023-07-20T06:35:59;13.60;;;6.95;;
50128;SDS011;36026;45.478;9.224;2023-07-20T06:39:00;11.98;;;7.20;;
50128;SDS011;36026;45.478;9.224;2023-07-20T06:42:02;11.50;;;6.13;;
50128;SDS011;36026;45.478;9.224;2023-07-20T06:45:04;9.32;;;6.53;;
50128;SDS011;36026;45.478;9.224;2023-07-20T06:48:06;10.73;;;6.07;;
50128;SDS011;36026;45.478;9.224;2023-07-20T06:51:09;11.07;;;6.90;;
50128;SDS011;36026;45.478;9.224;2023-07-20T06:54:10;12.02;;;6.50;;
50128;SDS011;36026;45.478;9.224;2023-07-20T06:57:12;11.07;;;6.20;;
50128;SDS011;36026;45.478;9.224;2023-07-20T07:00:14;12.32;;;7.13;;
50128;SDS011;36026;45.478;9.224;2023-07-20T07:03:15;14.57;;;6.90;;
50128;SDS011;36026;45.478;9.224;2023-07-20T07:06:18;13.05;;;6.90;;
50128;SDS011;36026;45.478;9.224;2023-07-20T07:09:21;13.65;;;6.95;;
50128;SDS011;36026;45.478;9.224;2023-07-20T07:12:22;14.73;;;6.85;;
50128;SDS011;36026;45.478;9.224;2023-07-20T07:15:24;12.13;;;7.55;;
50128;SDS011;36026;45.478;9.224;2023-07-20T07:18:25;15.98;;;7.78;;
50128;SDS011;36026;45.478;9.224;2023-07-20T07:21:28;13.45;;;8.50;;
50128;SDS011;36026;45.478;9.224;2023-07-20T07:24:30;12.30;;;7.80;;
50128;SDS011;36026;45.478;9.224;2023-07-20T07:27:33;14.85;;;6.95;;
50128;SDS011;36026;45.478;9.224;2023-07-20T07:30:35;10.13;;;6.22;;
50128;SDS011;36026;45.478;9.224;2023-07-20T07:33:37;19.20;;;7.35;;
50128;SDS011;36026;45.478;9.224;2023-07-20T07:36:40;11.35;;;6.68;;
50128;SDS011;36026;45.478;9.224;2023-07-20T07:39:41;12.25;;;5.88;;
50128;SDS011;36026;45.478;9.224;2023-07-20T07:42:43;12.80;;;6.70;;
50128;SDS011;36026;45.478;9.224;2023-07-20T07:45:44;21.10;;;8.00;;
50128;SDS011;36026;45.478;9.224;2023-07-20T07:48:45;14.13;;;6.20;;
50128;SDS011;36026;45.478;9.224;2023-07-20T07:51:49;8.77;;;5.53;;
50128;SDS011;36026;45.478;9.224;2023-07-20T07:54:51;16.40;;;7.35;;
50128;SDS011;36026;45.478;9.224;2023-07-20T07:57:53;10.73;;;5.70;;
50128;SDS011;36026;45.478;9.224;2023-07-20T08:00:54;10.65;;;6.45;;
50128;SDS011;36026;45.478;9.224;2023-07-20T08:03:55;11.35;;;6.95;;
50128;SDS011;36026;45.478;9.224;2023-07-20T08:06:58;15.73;;;6.53;;
50128;SDS011;36026;45.478;9.224;2023-07-20T08:10:00;11.43;;;6.95;;
50128;SDS011;36026;45.478;9.224;2023-07-20T08:13:01;11.05;;;5.65;;
50128;SDS011;36026;45.478;9.224;2023-07-20T08:16:03;12.65;;;6.13;;
50128;SDS011;36026;45.478;9.224;2023-07-20T08:19:05;15.15;;;6.82;;
50128;SDS011;36026;45.478;9.224;2023-07-20T08:22:07;12.02;;;6.18;;
50128;SDS011;36026;45.478;9.224;2023-07-20T08:28:11;10.75;;;6.43;;
50128;SDS011;36026;45.478;9.224;2023-07-20T08:31:13;11.20;;;6.10;;
50128;SDS011;36026;45.478;9.224;2023-07-20T08:34:14;11.63;;;5.65;;
50128;SDS011;36026;45.478;9.224;2023-07-20T08:37:17;10.48;;;5.40;;
50128;SDS011;36026;45.478;9.224;2023-07-20T08:40:18;13.27;;;4.97;;
50128;SDS011;36026;45.478;9.224;2023-07-20T08:43:20;11.70;;;6.00;;
50128;SDS011;36026;45.478;9.224;2023-07-20T08:46:24;10.55;;;5.80;;
50128;SDS011;36026;45.478;9.224;2023-07-20T08:49:27;12.13;;;5.90;;
50128;SDS011;36026;45.478;9.224;2023-07-20T08:52:30;14.35;;;6.20;;
50128;SDS011;36026;45.478;9.224;2023-07-20T08:55:34;15.27;;;5.57;;
50128;SDS011;36026;45.478;9.224;2023-07-20T08:58:36;11.57;;;5.03;;
50128;SDS011;36026;45.478;9.224;2023-07-20T09:01:38;13.82;;;5.65;;
50128;SDS011;36026;45.478;9.224;2023-07-20T09:04:40;11.77;;;5.57;;
50128;SDS011;36026;45.478;9.224;2023-07-20T09:07:44;11.77;;;6.43;;
50128;SDS011;36026;45.478;9.224;2023-07-20T09:10:46;10.27;;;6.22;;
50128;SDS011;36026;45.478;9.224;2023-07-20T09:13:47;12.43;;;7.07;;
50128;SDS011;36026;45.478;9.224;2023-07-20T09:16:49;13.02;;;7.65;;
50128;SDS011;36026;45.478;9.224;2023-07-20T09:19:50;12.23;;;6.63;;
50128;SDS011;36026;45.478;9.224;2023-07-20T09:22:53;11.10;;;5.90;;
50128;SDS011;36026;45.478;9.224;2023-07-20T09:25:55;13.85;;;7.40;;
50128;SDS011;36026;45.478;9.224;2023-07-20T09:28:58;9.88;;;6.43;;
50128;SDS011;36026;45.478;9.224;2023-07-20T09:32:00;14.68;;;6.75;;
50128;SDS011;36026;45.478;9.224;2023-07-20T09:35:02;16.10;;;7.35;;
50128;SDS011;36026;45.478;9.224;2023-07-20T09:38:04;11.37;;;6.20;;
50128;SDS011;36026;45.478;9.224;2023-07-20T09:41:06;12.57;;;6.28;;
50128;SDS011;36026;45.478;9.224;2023-07-20T09:44:08;10.00;;;5.93;;
50128;SDS011;36026;45.478;9.224;2023-07-20T09:47:11;7.95;;;5.20;;
50128;SDS011;36026;45.478;9.224;2023-07-20T09:50:12;12.80;;;5.80;;
50128;SDS011;36026;45.478;9.224;2023-07-20T09:53:16;13.98;;;6.72;;
50128;SDS011;36026;45.478;9.224;2023-07-20T09:56:18;15.38;;;7.47;;
50128;SDS011;36026;45.478;9.224;2023-07-20T09:59:22;11.70;;;5.97;;
50128;SDS011;36026;45.478;9.224;2023-07-20T10:02:25;14.90;;;5.80;;
50128;SDS011;36026;45.478;9.224;2023-07-20T10:05:26;10.25;;;6.10;;
50128;SDS011;36026;45.478;9.224;2023-07-20T10:08:30;11.70;;;6.55;;
50128;SDS011;36026;45.478;9.224;2023-07-20T10:11:34;14.00;;;6.20;;
50128;SDS011;36026;45.478;9.224;2023-07-20T10:14:38;12.68;;;5.53;;
50128;SDS011;36026;45.478;9.224;2023-07-20T10:17:45;11.40;;;5.72;;
50128;SDS011;36026;45.478;9.224;2023-07-20T10:20:49;14.40;;;6.00;;
50128;SDS011;36026;45.478;9.224;2023-07-20T10:23:53;9.98;;;6.10;;
50128;SDS011;36026;45.478;9.224;2023-07-20T10:26:55;11.32;;;5.70;;
50128;SDS011;36026;45.478;9.224;2023-07-20T10:29:57;13.82;;;6.43;;
50128;SDS011;36026;45.478;9.224;2023-07-20T10:33:01;10.75;;;5.53;;
50128;SDS011;36026;45.478;9.224;2023-07-20T10:36:04;7.65;;;5.25;;
50128;SDS011;36026;45.478;9.224;2023-07-20T10:39:07;9.30;;;5.05;;
50128;SDS011;36026;45.478;9.224;2023-07-20T10:42:15;10.88;;;6.22;;
50128;SDS011;36026;45.478;9.224;2023-07-20T10:45:16;8.05;;;5.47;;
50128;SDS011;36026;45.478;9.224;2023-07-20T10:48:18;15.30;;;6.38;;
50128;SDS011;36026;45.478;9.224;2023-07-20T10:51:20;11.15;;;6.03;;
50128;SDS011;36026;45.478;9.224;2023-07-20T10:54:35;9.77;;;6.55;;
50128;SDS011;36026;45.478;9.224;2023-07-20T11:01:06;10.40;;;6.18;;
50128;SDS011;36026;45.478;9.224;2023-07-20T11:04:08;10.13;;;6.10;;
50128;SDS011;36026;45.478;9.224;2023-07-20T11:07:09;10.93;;;7.05;;
50128;SDS011;36026;45.478;9.224;2023-07-20T11:10:15;12.27;;;5.10;;
50128;SDS011;36026;45.478;9.224;2023-07-20T11:13:19;18.63;;;6.80;;
50128;SDS011;36026;45.478;9.224;2023-07-20T11:16:27;12.48;;;6.57;;
50128;SDS011;36026;45.478;9.224;2023-07-20T11:19:32;9.75;;;5.95;;
50128;SDS011;36026;45.478;9.224;2023-07-20T11:22:34;10.15;;;5.75;;
50128;SDS011;36026;45.478;9.224;2023-07-20T11:25:38;12.18;;;5.65;;
50128;SDS011;36026;45.478;9.224;2023-07-20T11:28:39;9.98;;;6.10;;
50128;SDS011;36026;45.478;9.224;2023-07-20T11:31:41;12.07;;;5.90;;
50128;SDS011;36026;45.478;9.224;2023-07-20T11:34:43;11.40;;;5.85;;
50128;SDS011;36026;45.478;9.224;2023-07-20T11:37:47;8.23;;;5.40;;
50128;SDS011;36026;45.478;9.224;2023-07-20T11:40:50;10.02;;;5.80;;
50128;SDS011;36026;45.478;9.224;2023-07-20T11:43:52;7.93;;;5.10;;
50128;SDS011;36026;45.478;9.224;2023-07-20T11:46:59;9.13;;;6.28;;
50128;SDS011;36026;45.478;9.224;2023-07-20T11:50:02;8.63;;;5.38;;
50128;SDS011;36026;45.478;9.224;2023-07-20T11:53:04;9.68;;;5.70;;
50128;SDS011;36026;45.478;9.224;2023-07-20T11:56:07;7.35;;;5.45;;
50128;SDS011;36026;45.478;9.224;2023-07-20T11:59:09;9.20;;;4.88;;
50128;SDS011;36026;45.478;9.224;2023-07-20T12:02:10;8.85;;;5.13;;
50128;SDS011;36026;45.478;9.224;2023-07-20T12:05:12;8.48;;;5.80;;
50128;SDS011;36026;45.478;9.224;2023-07-20T12:08:14;10.07;;;5.30;;
50128;SDS011;36026;45.478;9.224;2023-07-20T12:11:31;11.45;;;5.20;;
50128;SDS011;36026;45.478;9.224;2023-07-20T12:14:32;9.40;;;4.93;;
50128;SDS011;36026;45.478;9.224;2023-07-20T12:17:34;9.43;;;5.05;;
50128;SDS011;36026;45.478;9.224;2023-07-20T12:20:36;5.82;;;5.13;;
50128;SDS011;36026;45.478;9.224;2023-07-20T12:23:39;9.32;;;4.47;;
50128;SDS011;36026;45.478;9.224;2023-07-20T12:26:42;6.95;;;4.80;;
50128;SDS011;36026;45.478;9.224;2023-07-20T12:29:44;8.68;;;4.97;;
50128;SDS011;36026;45.478;9.224;2023-07-20T12:32:45;10.70;;;5.22;;
50128;SDS011;36026;45.478;9.224;2023-07-20T12:35:46;13.00;;;5.72;;
50128;SDS011;36026;45.478;9.224;2023-07-20T12:38:48;15.43;;;4.60;;
50128;SDS011;36026;45.478;9.224;2023-07-20T12:44:52;9.77;;;5.38;;
50128;SDS011;36026;45.478;9.224;2023-07-20T12:47:54;9.60;;;4.75;;
50128;SDS011;36026;45.478;9.224;2023-07-20T12:50:55;9.18;;;5.70;;
50128;SDS011;36026;45.478;9.224;2023-07-20T12:53:57;7.07;;;4.68;;
50128;SDS011;36026;45.478;9.224;2023-07-20T12:56:58;10.05;;;4.85;;
50128;SDS011;36026;45.478;9.224;2023-07-20T13:03:02;12.20;;;5.53;;
50128;SDS011;36026;45.478;9.224;2023-07-20T13:06:05;6.28;;;3.97;;
50128;SDS011;36026;45.478;9.224;2023-07-20T13:09:06;6.68;;;4.28;;
50128;SDS011;36026;45.478;9.224;2023-07-20T13:12:08;12.15;;;4.63;;
50128;SDS011;36026;45.478;9.224;2023-07-20T13:15:10;9.25;;;5.25;;
50128;SDS011;36026;45.478;9.224;2023-07-20T13:18:13;10.02;;;4.82;;
50128;SDS011;36026;45.478;9.224;2023-07-20T13:21:14;6.40;;;4.25;;
50128;SDS011;36026;45.478;9.224;2023-07-20T13:27:17;9.93;;;4.40;;
50128;SDS011;36026;45.478;9.224;2023-07-20T13:30:19;9.43;;;4.35;;
50128;SDS011;36026;45.478;9.224;2023-07-20T13:33:23;10.38;;;4.18;;
50128;SDS011;36026;45.478;9.224;2023-07-20T13:36:24;9.45;;;4.22;;
50128;SDS011;36026;45.478;9.224;2023-07-20T13:45:29;7.38;;;4.30;;
50128;SDS011;36026;45.478;9.224;2023-07-20T13:48:31;9.63;;;4.53;;
50128;SDS011;36026;45.478;9.224;2023-07-20T13:51:33;11.55;;;4.80;;
50128;SDS011;36026;45.478;9.224;2023-07-20T13:54:35;7.18;;;4.50;;
50128;SDS011;36026;45.478;9.224;2023-07-20T13:57:36;8.00;;;4.30;;
50128;SDS011;36026;45.478;9.224;2023-07-20T14:00:37;8.77;;;4.75;;
50128;SDS011;36026;45.478;9.224;2023-07-20T14:06:42;8.77;;;4.60;;
50128;SDS011;36026;45.478;9.224;2023-07-20T14:09:44;9.65;;;5.10;;
50128;SDS011;36026;45.478;9.224;2023-07-20T14:12:45;7.20;;;4.70;;
50128;SDS011;36026;45.478;9.224;2023-07-20T14:15:46;7.35;;;4.85;;
50128;SDS011;36026;45.478;9.224;2023-07-20T14:18:50;5.13;;;3.78;;
50128;SDS011;36026;45.478;9.224;2023-07-20T14:21:53;9.20;;;4.93;;
50128;SDS011;36026;45.478;9.224;2023-07-20T14:24:55;6.60;;;4.47;;
50128;SDS011;36026;45.478;9.224;2023-07-20T14:30:57;8.35;;;4.43;;
50128;SDS011;36026;45.478;9.224;2023-07-20T14:33:59;5.25;;;4.40;;
50128;SDS011;36026;45.478;9.224;2023-07-20T14:37:02;9.90;;;4.70;;
50128;SDS011;36026;45.478;9.224;2023-07-20T14:40:05;10.52;;;5.57;;
50128;SDS011;36026;45.478;9.224;2023-07-20T14:43:07;8.32;;;4.78;;
50128;SDS011;36026;45.478;9.224;2023-07-20T14:46:09;8.20;;;4.88;;
50128;SDS011;36026;45.478;9.224;2023-07-20T14:49:10;13.57;;;6.45;;
50128;SDS011;36026;45.478;9.224;2023-07-20T14:55:15;9.00;;;4.60;;
50128;SDS011;36026;45.478;9.224;2023-07-20T14:58:16;11.45;;;4.30;;
50128;SDS011;36026;45.478;9.224;2023-07-20T15:01:18;7.88;;;4.53;;
50128;SDS011;36026;45.478;9.224;2023-07-20T15:04:20;8.75;;;4.40;;
50128;SDS011;36026;45.478;9.224;2023-07-20T15:07:22;10.50;;;4.90;;
50128;SDS011;36026;45.478;9.224;2023-07-20T15:10:25;11.63;;;4.22;;
50128;SDS011;36026;45.478;9.224;2023-07-20T15:13:26;10.82;;;4.53;;
50128;SDS011;36026;45.478;9.224;2023-07-20T15:16:27;10.32;;;4.43;;
50128;SDS011;36026;45.478;9.224;2023-07-20T15:19:29;7.35;;;4.50;;
50128;SDS011;36026;45.478;9.224;2023-07-20T15:22:30;11.07;;;4.45;;
50128;SDS011;36026;45.478;9.224;2023-07-20T15:25:33;8.07;;;4.55;;
50128;SDS011;36026;45.478;9.224;2023-07-20T15:28:35;7.28;;;4.35;;
50128;SDS011;36026;45.478;9.224;2023-07-20T15:31:36;6.30;;;4.10;;
50128;SDS011;36026;45.478;9.224;2023-07-20T15:34:37;11.50;;;4.40;;
50128;SDS011;36026;45.478;9.224;2023-07-20T15:37:39;9.43;;;4.00;;
50128;SDS011;36026;45.478;9.224;2023-07-20T15:40:43;9.63;;;4.33;;
50128;SDS011;36026;45.478;9.224;2023-07-20T15:43:45;9.48;;;4.43;;
50128;SDS011;36026;45.478;9.224;2023-07-20T15:46:47;8.02;;;4.30;;
50128;SDS011;36026;45.478;9.224;2023-07-20T15:52:51;11.18;;;4.60;;
50128;SDS011;36026;45.478;9.224;2023-07-20T15:55:54;9.63;;;4.80;;
50128;SDS011;36026;45.478;9.224;2023-07-20T15:58:56;7.57;;;4.15;;
50128;SDS011;36026;45.478;9.224;2023-07-20T16:01:57;7.27;;;4.27;;
50128;SDS011;36026;45.478;9.224;2023-07-20T16:04:59;10.57;;;4.05;;
50128;SDS011;36026;45.478;9.224;2023-07-20T16:08:00;11.90;;;4.53;;
50128;SDS011;36026;45.478;9.224;2023-07-20T16:11:03;7.38;;;4.15;;
50128;SDS011;36026;45.478;9.224;2023-07-20T16:14:05;9.77;;;4.20;;
50128;SDS011;36026;45.478;9.224;2023-07-20T16:20:09;6.70;;;4.03;;
50128;SDS011;36026;45.478;9.224;2023-07-20T16:23:11;6.53;;;3.88;;
50128;SDS011;36026;45.478;9.224;2023-07-20T16:26:13;7.68;;;4.28;;
50128;SDS011;36026;45.478;9.224;2023-07-20T16:29:15;8.75;;;4.55;;
50128;SDS011;36026;45.478;9.224;2023-07-20T16:32:16;8.18;;;4.18;;
50128;SDS011;36026;45.478;9.224;2023-07-20T16:35:18;13.47;;;4.10;;
50128;SDS011;36026;45.478;9.224;2023-07-20T16:38:21;6.25;;;4.35;;
50128;SDS011;36026;45.478;9.224;2023-07-20T16:41:23;8.07;;;4.80;;
50128;SDS011;36026;45.478;9.224;2023-07-20T16:44:25;8.40;;;4.10;;
50128;SDS011;36026;45.478;9.224;2023-07-20T16:47:26;7.95;;;3.97;;
50128;SDS011;36026;45.478;9.224;2023-07-20T16:50:28;10.13;;;4.30;;
50128;SDS011;36026;45.478;9.224;2023-07-20T16:53:29;9.70;;;4.43;;
50128;SDS011;36026;45.478;9.224;2023-07-20T16:56:32;10.93;;;4.63;;
50128;SDS011;36026;45.478;9.224;2023-07-20T16:59:34;9.10;;;3.72;;
50128;SDS011;36026;45.478;9.224;2023-07-20T17:02:35;8.63;;;4.00;;
50128;SDS011;36026;45.478;9.224;2023-07-20T17:05:37;10.23;;;4.20;;
50128;SDS011;36026;45.478;9.224;2023-07-20T17:08:39;9.45;;;4.30;;
50128;SDS011;36026;45.478;9.224;2023-07-20T17:11:42;6.30;;;4.25;;
50128;SDS011;36026;45.478;9.224;2023-07-20T17:14:43;10.93;;;5.03;;
50128;SDS011;36026;45.478;9.224;2023-07-20T17:17:45;11.45;;;5.22;;
50128;SDS011;36026;45.478;9.224;2023-07-20T17:20:46;9.23;;;4.60;;
50128;SDS011;36026;45.478;9.224;2023-07-20T17:23:48;11.13;;;5.20;;
50128;SDS011;36026;45.478;9.224;2023-07-20T17:26:51;11.63;;;4.73;;
50128;SDS011;36026;45.478;9.224;2023-07-20T17:29:54;15.15;;;5.13;;
50128;SDS011;36026;45.478;9.224;2023-07-20T17:32:58;7.18;;;4.18;;
50128;SDS011;36026;45.478;9.224;2023-07-20T17:36:00;9.85;;;5.50;;
50128;SDS011;36026;45.478;9.224;2023-07-20T17:39:01;12.00;;;5.35;;
50128;SDS011;36026;45.478;9.224;2023-07-20T17:42:05;8.95;;;5.38;;
50128;SDS011;36026;45.478;9.224;2023-07-20T17:45:07;10.68;;;5.00;;
50128;SDS011;36026;45.478;9.224;2023-07-20T17:48:08;10.90;;;5.18;;
50128;SDS011;36026;45.478;9.224;2023-07-20T17:51:10;12.18;;;5.03;;
50128;SDS011;36026;45.478;9.224;2023-07-20T17:54:11;9.38;;;5.05;;
50128;SDS011;36026;45.478;9.224;2023-07-20T17:57:14;10.75;;;5.03;;
50128;SDS011;36026;45.478;9.224;2023-07-20T18:00:16;6.22;;;4.82;;
50128;SDS011;36026;45.478;9.224;2023-07-20T18:03:18;14.13;;;5.28;;
50128;SDS011;36026;45.478;9.224;2023-07-20T18:06:19;9.23;;;5.07;;
50128;SDS011;36026;45.478;9.224;2023-07-20T18:09:21;9.90;;;4.63;;
50128;SDS011;36026;45.478;9.224;2023-07-20T18:12:24;11.35;;;5.35;;
50128;SDS011;36026;45.478;9.224;2023-07-20T18:15:25;10.02;;;5.07;;
50128;SDS011;36026;45.478;9.224;2023-07-20T18:18:26;9.95;;;5.82;;
50128;SDS011;36026;45.478;9.224;2023-07-20T18:21:28;9.57;;;5.15;;
50128;SDS011;36026;45.478;9.224;2023-07-20T18:24:29;11.63;;;5.28;;
50128;SDS011;36026;45.478;9.224;2023-07-20T18:27:32;12.20;;;5.45;;
50128;SDS011;36026;45.478;9.224;2023-07-20T18:30:34;13.18;;;6.18;;
50128;SDS011;36026;45.478;9.224;2023-07-20T18:33:36;12.70;;;6.18;;
50128;SDS011;36026;45.478;9.224;2023-07-20T18:36:37;16.42;;;7.03;;
50128;SDS011;36026;45.478;9.224;2023-07-20T18:39:39;15.15;;;6.82;;
50128;SDS011;36026;45.478;9.224;2023-07-20T18:42:41;15.57;;;7.07;;
50128;SDS011;36026;45.478;9.224;2023-07-20T18:45:43;15.50;;;8.25;;
50128;SDS011;36026;45.478;9.224;2023-07-20T18:48:46;18.52;;;8.02;;
50128;SDS011;36026;45.478;9.224;2023-07-20T18:51:48;11.63;;;6.45;;